Time,TemperatureF,DewpointF,PressureIn,WindDirection,WindDirectionDegrees,WindSpeedMPH,WindSpeedGustMPH,Humidity,HourlyPrecipIn,Conditions,Clouds,dailyrainin,SoftwareType,DateUTC
2013-04-06 00:07:00,28.2,18.0,30.00,NW,306,6.0,15.0,66,0.00,,,0.00,weatherlink.com 1.10,2013-04-06 04:07:00,
2013-04-06 00:22:00,28.0,18.0,30.00,NNW,333,6.0,15.0,66,0.00,,,0.00,weatherlink.com 1.10,2013-04-06 04:22:00,
2013-04-06 00:37:00,27.8,18.0,30.00,NNW,327,7.0,16.0,67,0.00,,,0.00,weatherlink.com 1.10,2013-04-06 04:37:00,
2013-04-06 00:52:00,27.6,18.0,30.01,NW,315,16.0,16.0,67,0.00,,,0.00,weatherlink.com 1.10,2013-04-06 04:52:00,
2013-04-06 01:08:00,27.4,18.0,30.02,NNW,333,9.0,15.0,68,0.00,,,0.00,weatherlink.com 1.10,2013-04-06 05:08:00,
2013-04-06 01:24:00,27.2,18.0,30.02,NW,315,11.0,19.0,69,0.00,,,0.00,weatherlink.com 1.10,2013-04-06 05:24:00,
2013-04-06 01:38:00,27.0,18.0,30.02,WSW,244,12.0,21.0,70,0.00,,,0.00,weatherlink.com 1.10,2013-04-06 05:38:00,
2013-04-06 01:53:00,26.9,19.0,30.02,NW,319,11.0,21.0,71,0.00,,,0.00,weatherlink.com 1.10,2013-04-06 05:53:00,
2013-04-06 02:08:00,26.7,19.0,30.03,NW,312,6.0,15.0,73,0.00,,,0.00,weatherlink.com 1.10,2013-04-06 06:08:00,
2013-04-06 02:23:00,26.7,19.0,30.04,NNW,343,10.0,17.0,74,0.00,,,0.00,weatherlink.com 1.10,2013-04-06 06:23:00,
2013-04-06 02:38:00,26.5,20.0,30.04,WNW,303,8.0,19.0,75,0.00,,,0.00,weatherlink.com 1.10,2013-04-06 06:38:00,
2013-04-06 02:53:00,26.2,20.0,30.04,NW,318,9.0,17.0,76,0.00,,,0.00,weatherlink.com 1.10,2013-04-06 06:53:00,
2013-04-06 03:09:00,26.0,20.0,30.05,NW,325,9.0,15.0,77,0.00,,,0.00,weatherlink.com 1.10,2013-04-06 07:09:00,
2013-04-06 03:39:00,26.0,21.0,30.07,NNW,333,9.0,18.0,81,0.00,,,0.00,weatherlink.com 1.10,2013-04-06 07:39:00,
2013-04-06 03:54:00,25.4,21.0,30.08,NNW,330,9.0,17.0,83,0.00,,,0.00,weatherlink.com 1.10,2013-04-06 07:54:00,
2013-04-06 04:09:00,25.2,20.0,30.09,NNW,331,13.0,21.0,82,0.00,,,0.00,weatherlink.com 1.10,2013-04-06 08:09:00,
2013-04-06 04:24:00,24.7,17.0,30.10,NNW,339,10.0,17.0,73,0.00,,,0.00,weatherlink.com 1.10,2013-04-06 08:24:00,
2013-04-06 04:39:00,24.3,16.0,30.11,NNW,331,7.0,15.0,72,0.00,,,0.00,weatherlink.com 1.10,2013-04-06 08:39:00,
2013-04-06 05:25:00,24.0,13.0,30.13,NNW,342,19.0,21.0,64,0.00,,,0.00,weatherlink.com 1.10,2013-04-06 09:25:00,
2013-04-06 05:40:00,23.8,13.0,30.14,NW,320,12.0,18.0,63,0.00,,,0.00,weatherlink.com 1.10,2013-04-06 09:40:00,
2013-04-06 05:55:00,23.5,13.0,30.14,NNW,342,11.0,19.0,63,0.00,,,0.00,weatherlink.com 1.10,2013-04-06 09:55:00,
2013-04-06 06:10:00,23.2,13.0,30.15,NNW,340,6.0,16.0,64,0.00,,,0.00,weatherlink.com 1.10,2013-04-06 10:10:00,
2013-04-06 06:25:00,23.0,12.0,30.16,NNW,336,9.0,21.0,63,0.00,,,0.00,weatherlink.com 1.10,2013-04-06 10:25:00,
2013-04-06 06:40:00,22.7,12.0,30.17,NW,319,8.0,16.0,64,0.00,,,0.00,weatherlink.com 1.10,2013-04-06 10:40:00,
2013-04-06 06:56:00,22.4,13.0,30.18,North,360,6.0,14.0,66,0.00,,,0.00,weatherlink.com 1.10,2013-04-06 10:56:00,
2013-04-06 07:10:00,22.2,12.0,30.19,WNW,283,6.0,13.0,66,0.00,,,0.00,weatherlink.com 1.10,2013-04-06 11:10:00,
2013-04-06 07:26:00,22.7,13.0,30.20,North,5,9.0,13.0,66,0.00,,,0.00,weatherlink.com 1.10,2013-04-06 11:26:00,
2013-04-06 07:41:00,23.0,13.0,30.21,NNW,335,8.0,14.0,65,0.00,,,0.00,weatherlink.com 1.10,2013-04-06 11:41:00,
2013-04-06 07:56:00,22.9,13.0,30.22,NNW,346,12.0,15.0,65,0.00,,,0.00,weatherlink.com 1.10,2013-04-06 11:56:00,
2013-04-06 08:11:00,23.2,12.0,30.22,NNW,331,7.0,16.0,63,0.00,,,0.00,weatherlink.com 1.10,2013-04-06 12:11:00,
2013-04-06 08:26:00,23.4,11.0,30.22,NNW,346,5.0,15.0,60,0.00,,,0.00,weatherlink.com 1.10,2013-04-06 12:26:00,
2013-04-06 09:11:00,24.1,8.0,30.24,NNW,340,7.0,23.0,51,0.00,,,0.00,weatherlink.com 1.10,2013-04-06 13:11:00,
2013-04-06 09:27:00,25.2,9.0,30.24,NNE,21,12.0,14.0,51,0.00,,,0.00,weatherlink.com 1.10,2013-04-06 13:27:00,
2013-04-06 09:42:00,25.4,7.0,30.25,NNE,19,11.0,23.0,45,0.00,,,0.00,weatherlink.com 1.10,2013-04-06 13:42:00,
2013-04-06 09:58:00,25.4,6.0,30.25,North,5,15.0,22.0,44,0.00,,,0.00,weatherlink.com 1.10,2013-04-06 13:58:00,
2013-04-06 10:12:00,26.4,7.0,30.26,NNW,335,12.0,17.0,44,0.00,,,0.00,weatherlink.com 1.10,2013-04-06 14:12:00,
2013-04-06 10:27:00,27.0,9.0,30.26,WNW,301,9.0,15.0,46,0.00,,,0.00,weatherlink.com 1.10,2013-04-06 14:27:00,
2013-04-06 10:42:00,28.2,9.0,30.26,North,355,12.0,13.0,44,0.00,,,0.00,weatherlink.com 1.10,2013-04-06 14:42:00,
2013-04-06 10:57:00,28.6,8.0,30.27,NNW,329,9.0,14.0,42,0.00,,,0.00,weatherlink.com 1.10,2013-04-06 14:57:00,
2013-04-06 11:13:00,29.8,9.0,30.27,North,9,8.0,10.0,42,0.00,,,0.00,weatherlink.com 1.10,2013-04-06 15:13:00,
2013-04-06 11:28:00,30.2,9.0,30.27,NNW,340,11.0,15.0,41,0.00,,,0.00,weatherlink.com 1.10,2013-04-06 15:28:00,
2013-04-06 11:43:00,30.3,9.0,30.28,NNW,333,14.0,17.0,40,0.00,,,0.00,weatherlink.com 1.10,2013-04-06 15:43:00,
2013-04-06 11:58:00,31.1,7.0,30.27,NNE,15,3.0,14.0,36,0.00,,,0.00,weatherlink.com 1.10,2013-04-06 15:58:00,
2013-04-06 12:13:00,31.7,7.0,30.27,NW,326,9.0,17.0,35,0.00,,,0.00,weatherlink.com 1.10,2013-04-06 16:13:00,
2013-04-06 12:28:00,32.2,7.0,30.27,North,5,9.0,15.0,35,0.00,,,0.00,weatherlink.com 1.10,2013-04-06 16:28:00,
2013-04-06 13:14:00,35.0,11.0,30.26,NNW,338,6.0,15.0,37,0.00,,,0.00,weatherlink.com 1.10,2013-04-06 17:14:00,
2013-04-06 13:44:00,35.4,10.0,30.27,NNW,334,6.0,13.0,35,0.00,,,0.00,weatherlink.com 1.10,2013-04-06 17:44:00,
2013-04-06 13:59:00,35.8,10.0,30.27,NNW,348,6.0,13.0,34,0.00,,,0.00,weatherlink.com 1.10,2013-04-06 17:59:00,
2013-04-06 14:14:00,36.8,9.0,30.27,ENE,59,1.0,10.0,31,0.00,,,0.00,weatherlink.com 1.10,2013-04-06 18:14:00,
2013-04-06 14:29:00,37.3,8.0,30.26,NNE,31,4.0,8.0,29,0.00,,,0.00,weatherlink.com 1.10,2013-04-06 18:29:00,
2013-04-06 14:44:00,38.2,8.0,30.26,NW,316,1.0,12.0,29,0.00,,,0.00,weatherlink.com 1.10,2013-04-06 18:44:00,
2013-04-06 14:59:00,37.8,8.0,30.25,NW,326,3.0,15.0,29,0.00,,,0.00,weatherlink.com 1.10,2013-04-06 18:59:00,
2013-04-06 15:14:00,38.5,6.0,30.25,North,11,1.0,10.0,26,0.00,,,0.00,weatherlink.com 1.10,2013-04-06 19:14:00,
2013-04-06 15:29:00,38.8,8.0,30.25,NNW,329,2.0,14.0,28,0.00,,,0.00,weatherlink.com 1.10,2013-04-06 19:29:00,
2013-04-06 15:46:00,39.6,7.0,30.24,NE,44,3.0,8.0,26,0.00,,,0.00,weatherlink.com 1.10,2013-04-06 19:46:00,
2013-04-06 16:00:00,40.7,8.0,30.24,NW,326,7.0,10.0,26,0.00,,,0.00,weatherlink.com 1.10,2013-04-06 20:00:00,
2013-04-06 16:15:00,41.4,9.0,30.24,North,5,5.0,10.0,26,0.00,,,0.00,weatherlink.com 1.10,2013-04-06 20:15:00,
2013-04-06 16:30:00,41.0,9.0,30.23,NW,315,4.0,9.0,27,0.00,,,0.00,weatherlink.com 1.10,2013-04-06 20:30:00,
2013-04-06 16:45:00,42.3,9.0,30.23,NNW,338,2.0,5.0,26,0.00,,,0.00,weatherlink.com 1.10,2013-04-06 20:45:00,
2013-04-06 17:00:00,42.2,10.0,30.24,WNW,289,0.0,7.0,27,0.00,,,0.00,weatherlink.com 1.10,2013-04-06 21:00:00,
2013-04-06 17:15:00,42.6,10.0,30.24,NW,324,5.0,9.0,26,0.00,,,0.00,weatherlink.com 1.10,2013-04-06 21:15:00,
2013-04-06 17:30:00,42.1,7.0,30.24,NW,311,4.0,9.0,23,0.00,,,0.00,weatherlink.com 1.10,2013-04-06 21:30:00,
2013-04-06 17:45:00,43.4,6.0,30.25,NW,321,0.0,3.0,21,0.00,,,0.00,weatherlink.com 1.10,2013-04-06 21:45:00,
2013-04-06 18:01:00,43.6,8.0,30.25,NW,321,0.0,4.0,23,0.00,,,0.00,weatherlink.com 1.10,2013-04-06 22:01:00,
2013-04-06 18:16:00,43.4,7.0,30.25,NW,321,2.0,3.0,22,0.00,,,0.00,weatherlink.com 1.10,2013-04-06 22:16:00,
2013-04-06 19:01:00,36.1,22.0,30.25,NW,321,0.0,0.0,56,0.00,,,0.00,weatherlink.com 1.10,2013-04-06 23:01:00,
2013-04-06 19:16:00,34.3,22.0,30.25,NW,321,0.0,2.0,61,0.00,,,0.00,weatherlink.com 1.10,2013-04-06 23:16:00,
2013-04-06 19:31:00,32.7,22.0,30.25,NW,321,0.0,1.0,65,0.00,,,0.00,weatherlink.com 1.10,2013-04-06 23:31:00,
2013-04-06 19:46:00,31.2,21.0,30.25,NW,321,1.0,3.0,67,0.00,,,0.00,weatherlink.com 1.10,2013-04-06 23:46:00,
2013-04-06 20:01:00,30.3,21.0,30.25,NW,321,1.0,3.0,68,0.00,,,0.00,weatherlink.com 1.10,2013-04-07 00:01:00,
2013-04-06 20:17:00,29.7,20.0,30.26,NW,321,1.0,2.0,67,0.00,,,0.00,weatherlink.com 1.10,2013-04-07 00:17:00,
2013-04-06 20:32:00,29.3,20.0,30.26,NW,321,2.0,3.0,68,0.00,,,0.00,weatherlink.com 1.10,2013-04-07 00:32:00,
2013-04-06 20:47:00,28.9,20.0,30.27,NW,321,0.0,3.0,70,0.00,,,0.00,weatherlink.com 1.10,2013-04-07 00:47:00,
2013-04-06 21:02:00,28.7,19.0,30.27,NW,321,2.0,2.0,68,0.00,,,0.00,weatherlink.com 1.10,2013-04-07 01:02:00,
2013-04-06 21:17:00,28.3,18.0,30.27,NW,321,0.0,2.0,66,0.00,,,0.00,weatherlink.com 1.10,2013-04-07 01:17:00,
2013-04-06 21:32:00,28.2,18.0,30.28,NW,321,2.0,2.0,66,0.00,,,0.00,weatherlink.com 1.10,2013-04-07 01:32:00,
2013-04-06 21:47:00,27.9,20.0,30.27,NW,321,0.0,2.0,71,0.00,,,0.00,weatherlink.com 1.10,2013-04-07 01:47:00,
2013-04-06 22:02:00,28.0,19.0,30.27,NW,321,0.0,2.0,69,0.00,,,0.00,weatherlink.com 1.10,2013-04-07 02:02:00,
2013-04-06 22:17:00,27.8,20.0,30.26,NW,321,0.0,0.0,72,0.00,,,0.00,weatherlink.com 1.10,2013-04-07 02:17:00,
2013-04-06 22:32:00,27.6,20.0,30.26,NW,321,2.0,2.0,72,0.00,,,0.00,weatherlink.com 1.10,2013-04-07 02:32:00,
2013-04-06 22:47:00,27.5,20.0,30.26,NW,321,0.0,2.0,72,0.00,,,0.00,weatherlink.com 1.10,2013-04-07 02:47:00,
2013-04-06 23:02:00,27.4,19.0,30.26,NW,321,0.0,2.0,72,0.00,,,0.00,weatherlink.com 1.10,2013-04-07 03:02:00,
2013-04-06 23:17:00,27.2,19.0,30.25,NW,321,0.0,2.0,71,0.00,,,0.00,weatherlink.com 1.10,2013-04-07 03:17:00,
2013-04-06 23:32:00,27.3,19.0,30.25,NW,321,1.0,2.0,71,0.00,,,0.00,weatherlink.com 1.10,2013-04-07 03:32:00,
2013-04-06 23:47:00,27.8,21.0,30.24,NW,321,0.0,2.0,74,0.00,,,0.00,weatherlink.com 1.10,2013-04-07 03:47:00,